sensor_id;sensor_type;location;lat;lon;timestamp;temperature;humidity
71291;DHT22;59073;51.994;4.448;2023-06-26T00:01:28;23.05;66.06
71291;DHT22;59073;51.994;4.448;2023-06-26T00:03:58;23.02;66.41
71291;DHT22;59073;51.994;4.448;2023-06-26T00:06:25;22.90;67.53
71291;DHT22;59073;51.994;4.448;2023-06-26T00:08:55;22.71;68.18
71291;DHT22;59073;51.994;4.448;2023-06-26T00:11:21;22.74;68.43
71291;DHT22;59073;51.994;4.448;2023-06-26T00:13:47;22.70;68.50
71291;DHT22;59073;51.994;4.448;2023-06-26T00:16:13;22.70;68.67
71291;DHT22;59073;51.994;4.448;2023-06-26T00:18:38;22.70;68.53
71291;DHT22;59073;51.994;4.448;2023-06-26T00:21:03;22.60;68.91
71291;DHT22;59073;51.994;4.448;2023-06-26T00:23:29;22.51;69.06
71291;DHT22;59073;51.994;4.448;2023-06-26T00:25:56;22.43;69.54
71291;DHT22;59073;51.994;4.448;2023-06-26T00:28:22;22.36;69.86
71291;DHT22;59073;51.994;4.448;2023-06-26T00:30:47;22.33;70.13
71291;DHT22;59073;51.994;4.448;2023-06-26T00:33:12;22.32;70.08
71291;DHT22;59073;51.994;4.448;2023-06-26T00:35:38;22.14;70.86
71291;DHT22;59073;51.994;4.448;2023-06-26T00:38:03;22.12;71.20
71291;DHT22;59073;51.994;4.448;2023-06-26T00:40:29;21.98;71.78
71291;DHT22;59073;51.994;4.448;2023-06-26T00:42:54;21.93;72.14
71291;DHT22;59073;51.994;4.448;2023-06-26T00:45:19;21.88;72.51
71291;DHT22;59073;51.994;4.448;2023-06-26T00:47:45;21.79;72.88
71291;DHT22;59073;51.994;4.448;2023-06-26T00:50:11;21.69;73.39
71291;DHT22;59073;51.994;4.448;2023-06-26T00:52:37;21.65;73.70
71291;DHT22;59073;51.994;4.448;2023-06-26T00:55:04;21.68;73.64
71291;DHT22;59073;51.994;4.448;2023-06-26T00:57:30;21.71;73.41
71291;DHT22;59073;51.994;4.448;2023-06-26T00:59:56;21.61;73.97
71291;DHT22;59073;51.994;4.448;2023-06-26T01:02:22;21.54;74.10
71291;DHT22;59073;51.994;4.448;2023-06-26T01:04:49;21.54;74.59
71291;DHT22;59073;51.994;4.448;2023-06-26T01:07:16;21.58;74.42
71291;DHT22;59073;51.994;4.448;2023-06-26T01:09:45;21.68;73.92
71291;DHT22;59073;51.994;4.448;2023-06-26T01:12:11;21.66;74.24
71291;DHT22;59073;51.994;4.448;2023-06-26T01:14:37;21.64;74.10
71291;DHT22;59073;51.994;4.448;2023-06-26T01:17:03;21.65;74.14
71291;DHT22;59073;51.994;4.448;2023-06-26T01:19:31;21.71;74.26
71291;DHT22;59073;51.994;4.448;2023-06-26T01:27:37;21.69;74.46
71291;DHT22;59073;51.994;4.448;2023-06-26T01:30:05;21.75;74.30
71291;DHT22;59073;51.994;4.448;2023-06-26T01:32:32;21.74;74.22
71291;DHT22;59073;51.994;4.448;2023-06-26T01:34:59;21.81;74.04
71291;DHT22;59073;51.994;4.448;2023-06-26T01:37:25;21.83;73.78
71291;DHT22;59073;51.994;4.448;2023-06-26T01:39:50;21.85;73.81
71291;DHT22;59073;51.994;4.448;2023-06-26T01:42:16;21.83;74.13
71291;DHT22;59073;51.994;4.448;2023-06-26T01:44:45;21.74;74.12
71291;DHT22;59073;51.994;4.448;2023-06-26T01:47:16;21.74;74.18
71291;DHT22;59073;51.994;4.448;2023-06-26T01:49:51;21.71;74.03
71291;DHT22;59073;51.994;4.448;2023-06-26T01:52:25;21.68;74.04
71291;DHT22;59073;51.994;4.448;2023-06-26T01:55:14;21.62;74.31
71291;DHT22;59073;51.994;4.448;2023-06-26T01:57:41;21.71;74.14
71291;DHT22;59073;51.994;4.448;2023-06-26T02:00:08;21.75;73.67
71291;DHT22;59073;51.994;4.448;2023-06-26T02:02:35;21.66;73.50
71291;DHT22;59073;51.994;4.448;2023-06-26T02:05:01;21.62;73.31
71291;DHT22;59073;51.994;4.448;2023-06-26T02:07:27;21.58;73.55
71291;DHT22;59073;51.994;4.448;2023-06-26T02:09:52;21.57;73.37
71291;DHT22;59073;51.994;4.448;2023-06-26T02:12:17;21.58;73.07
71291;DHT22;59073;51.994;4.448;2023-06-26T02:14:43;21.47;73.05
71291;DHT22;59073;51.994;4.448;2023-06-26T02:17:09;21.38;73.08
71291;DHT22;59073;51.994;4.448;2023-06-26T02:19:34;21.20;73.49
71291;DHT22;59073;51.994;4.448;2023-06-26T02:22:00;21.23;73.63
71291;DHT22;59073;51.994;4.448;2023-06-26T02:24:25;21.26;73.60
71291;DHT22;59073;51.994;4.448;2023-06-26T02:26:55;21.33;73.56
71291;DHT22;59073;51.994;4.448;2023-06-26T02:29:20;21.26;72.76
71291;DHT22;59073;51.994;4.448;2023-06-26T02:31:46;21.27;73.17
71291;DHT22;59073;51.994;4.448;2023-06-26T02:34:11;21.20;72.69
71291;DHT22;59073;51.994;4.448;2023-06-26T02:36:37;21.19;72.72
71291;DHT22;59073;51.994;4.448;2023-06-26T02:39:02;21.19;72.72
71291;DHT22;59073;51.994;4.448;2023-06-26T02:41:27;21.03;72.86
71291;DHT22;59073;51.994;4.448;2023-06-26T02:43:53;20.93;73.19
71291;DHT22;59073;51.994;4.448;2023-06-26T02:46:18;20.87;73.17
71291;DHT22;59073;51.994;4.448;2023-06-26T02:48:44;20.83;73.06
71291;DHT22;59073;51.994;4.448;2023-06-26T02:51:09;20.73;73.19
71291;DHT22;59073;51.994;4.448;2023-06-26T02:53:34;20.79;73.15
71291;DHT22;59073;51.994;4.448;2023-06-26T02:56:00;20.63;73.74
71291;DHT22;59073;51.994;4.448;2023-06-26T02:58:25;20.56;74.15
71291;DHT22;59073;51.994;4.448;2023-06-26T03:00:51;20.53;74.28
71291;DHT22;59073;51.994;4.448;2023-06-26T03:03:17;20.48;74.81
71291;DHT22;59073;51.994;4.448;2023-06-26T03:05:42;20.39;74.76
71291;DHT22;59073;51.994;4.448;2023-06-26T03:08:08;20.49;74.53
71291;DHT22;59073;51.994;4.448;2023-06-26T03:10:33;20.52;74.69
71291;DHT22;59073;51.994;4.448;2023-06-26T03:12:58;20.56;74.40
71291;DHT22;59073;51.994;4.448;2023-06-26T03:15:24;20.57;74.57
71291;DHT22;59073;51.994;4.448;2023-06-26T03:17:49;20.61;74.28
71291;DHT22;59073;51.994;4.448;2023-06-26T03:20:15;20.59;74.19
71291;DHT22;59073;51.994;4.448;2023-06-26T03:22:40;20.61;74.62
71291;DHT22;59073;51.994;4.448;2023-06-26T03:25:06;20.52;74.52
71291;DHT22;59073;51.994;4.448;2023-06-26T03:27:31;20.51;74.60
71291;DHT22;59073;51.994;4.448;2023-06-26T03:29:57;20.48;74.44
71291;DHT22;59073;51.994;4.448;2023-06-26T03:32:22;20.52;74.40
71291;DHT22;59073;51.994;4.448;2023-06-26T03:34:48;20.49;74.36
71291;DHT22;59073;51.994;4.448;2023-06-26T03:37:13;20.41;74.66
71291;DHT22;59073;51.994;4.448;2023-06-26T03:39:38;20.29;74.43
71291;DHT22;59073;51.994;4.448;2023-06-26T03:42:04;20.33;74.75
71291;DHT22;59073;51.994;4.448;2023-06-26T03:44:30;20.28;74.84
71291;DHT22;59073;51.994;4.448;2023-06-26T03:46:55;20.18;75.05
71291;DHT22;59073;51.994;4.448;2023-06-26T03:49:21;20.17;75.12
71291;DHT22;59073;51.994;4.448;2023-06-26T03:51:46;20.26;74.75
71291;DHT22;59073;51.994;4.448;2023-06-26T03:54:11;20.29;74.90
71291;DHT22;59073;51.994;4.448;2023-06-26T03:56:37;20.32;74.85
71291;DHT22;59073;51.994;4.448;2023-06-26T03:59:02;20.24;74.83
71291;DHT22;59073;51.994;4.448;2023-06-26T04:01:28;20.18;75.02
71291;DHT22;59073;51.994;4.448;2023-06-26T04:03:54;20.28;74.94
71291;DHT22;59073;51.994;4.448;2023-06-26T04:06:19;20.48;74.14
71291;DHT22;59073;51.994;4.448;2023-06-26T04:08:45;20.51;73.75
71291;DHT22;59073;51.994;4.448;2023-06-26T04:11:10;20.39;74.17
71291;DHT22;59073;51.994;4.448;2023-06-26T04:13:36;20.39;74.06
71291;DHT22;59073;51.994;4.448;2023-06-26T04:16:01;20.45;74.20
71291;DHT22;59073;51.994;4.448;2023-06-26T04:18:27;20.55;73.73
71291;DHT22;59073;51.994;4.448;2023-06-26T04:21:12;20.73;73.81
71291;DHT22;59073;51.994;4.448;2023-06-26T04:23:39;21.19;72.38
71291;DHT22;59073;51.994;4.448;2023-06-26T04:26:05;21.54;71.21
71291;DHT22;59073;51.994;4.448;2023-06-26T04:28:32;21.24;70.93
71291;DHT22;59073;51.994;4.448;2023-06-26T04:30:58;21.35;70.76
71291;DHT22;59073;51.994;4.448;2023-06-26T04:33:24;21.82;69.04
71291;DHT22;59073;51.994;4.448;2023-06-26T04:35:51;22.59;67.06
71291;DHT22;59073;51.994;4.448;2023-06-26T04:38:16;23.12;65.08
71291;DHT22;59073;51.994;4.448;2023-06-26T04:40:41;23.41;64.77
71291;DHT22;59073;51.994;4.448;2023-06-26T04:43:07;23.39;64.72
71291;DHT22;59073;51.994;4.448;2023-06-26T04:45:32;23.46;63.51
71291;DHT22;59073;51.994;4.448;2023-06-26T04:47:58;23.82;63.41
71291;DHT22;59073;51.994;4.448;2023-06-26T04:50:26;23.79;62.70
71291;DHT22;59073;51.994;4.448;2023-06-26T04:52:57;24.01;63.00
71291;DHT22;59073;51.994;4.448;2023-06-26T04:55:25;24.25;62.86
71291;DHT22;59073;51.994;4.448;2023-06-26T04:57:51;24.13;62.52
71291;DHT22;59073;51.994;4.448;2023-06-26T05:00:17;24.16;62.68
71291;DHT22;59073;51.994;4.448;2023-06-26T05:02:43;23.82;63.43
71291;DHT22;59073;51.994;4.448;2023-06-26T05:05:08;23.59;63.18
71291;DHT22;59073;51.994;4.448;2023-06-26T05:07:34;23.79;62.66
71291;DHT22;59073;51.994;4.448;2023-06-26T05:09:59;24.27;62.46
71291;DHT22;59073;51.994;4.448;2023-06-26T05:12:25;24.41;61.96
71291;DHT22;59073;51.994;4.448;2023-06-26T05:14:50;24.55;62.19
71291;DHT22;59073;51.994;4.448;2023-06-26T05:17:16;24.81;60.73
71291;DHT22;59073;51.994;4.448;2023-06-26T05:19:41;25.30;59.88
71291;DHT22;59073;51.994;4.448;2023-06-26T05:22:07;25.33;57.65
71291;DHT22;59073;51.994;4.448;2023-06-26T05:24:35;24.55;59.45
71291;DHT22;59073;51.994;4.448;2023-06-26T05:27:01;24.13;60.58
71291;DHT22;59073;51.994;4.448;2023-06-26T05:29:28;23.07;62.60
71291;DHT22;59073;51.994;4.448;2023-06-26T05:31:56;22.81;62.22
71291;DHT22;59073;51.994;4.448;2023-06-26T05:34:22;22.33;63.05
71291;DHT22;59073;51.994;4.448;2023-06-26T05:36:50;21.99;65.80
71291;DHT22;59073;51.994;4.448;2023-06-26T05:39:17;21.51;65.06
71291;DHT22;59073;51.994;4.448;2023-06-26T05:41:45;21.68;64.15
71291;DHT22;59073;51.994;4.448;2023-06-26T05:44:11;21.78;63.65
71291;DHT22;59073;51.994;4.448;2023-06-26T05:46:36;22.37;63.07
71291;DHT22;59073;51.994;4.448;2023-06-26T05:49:02;23.32;59.89
71291;DHT22;59073;51.994;4.448;2023-06-26T05:51:28;23.99;57.85
71291;DHT22;59073;51.994;4.448;2023-06-26T05:53:53;23.80;57.04
71291;DHT22;59073;51.994;4.448;2023-06-26T05:56:19;23.80;56.18
71291;DHT22;59073;51.994;4.448;2023-06-26T05:58:45;23.07;59.06
71291;DHT22;59073;51.994;4.448;2023-06-26T06:01:11;23.49;58.63
71291;DHT22;59073;51.994;4.448;2023-06-26T06:03:36;22.81;59.36
71291;DHT22;59073;51.994;4.448;2023-06-26T06:06:03;24.09;55.94
71291;DHT22;59073;51.994;4.448;2023-06-26T06:08:29;23.89;56.40
71291;DHT22;59073;51.994;4.448;2023-06-26T06:10:54;22.73;58.62
71291;DHT22;59073;51.994;4.448;2023-06-26T06:13:19;22.65;59.37
71291;DHT22;59073;51.994;4.448;2023-06-26T06:15:45;21.24;62.51
71291;DHT22;59073;51.994;4.448;2023-06-26T06:18:10;21.64;63.01
71291;DHT22;59073;51.994;4.448;2023-06-26T06:20:36;21.08;62.91
71291;DHT22;59073;51.994;4.448;2023-06-26T06:23:01;20.99;64.99
71291;DHT22;59073;51.994;4.448;2023-06-26T06:25:26;20.69;64.89
71291;DHT22;59073;51.994;4.448;2023-06-26T06:27:52;20.41;65.64
71291;DHT22;59073;51.994;4.448;2023-06-26T06:30:17;21.35;64.43
71291;DHT22;59073;51.994;4.448;2023-06-26T06:32:43;22.43;61.75
71291;DHT22;59073;51.994;4.448;2023-06-26T06:35:08;23.82;57.66
71291;DHT22;59073;51.994;4.448;2023-06-26T06:37:36;24.31;55.78
71291;DHT22;59073;51.994;4.448;2023-06-26T06:40:01;24.86;54.16
71291;DHT22;59073;51.994;4.448;2023-06-26T06:42:27;25.36;52.50
71291;DHT22;59073;51.994;4.448;2023-06-26T06:44:52;25.85;52.27
71291;DHT22;59073;51.994;4.448;2023-06-26T06:47:17;25.50;53.10
71291;DHT22;59073;51.994;4.448;2023-06-26T06:49:43;24.10;55.00
71291;DHT22;59073;51.994;4.448;2023-06-26T06:52:08;22.86;57.43
71291;DHT22;59073;51.994;4.448;2023-06-26T06:54:56;23.73;56.41
71291;DHT22;59073;51.994;4.448;2023-06-26T06:57:27;24.01;57.13
71291;DHT22;59073;51.994;4.448;2023-06-26T06:59:52;23.38;57.29
71291;DHT22;59073;51.994;4.448;2023-06-26T07:02:17;23.87;57.46
71291;DHT22;59073;51.994;4.448;2023-06-26T07:04:43;23.69;56.95
71291;DHT22;59073;51.994;4.448;2023-06-26T07:07:08;23.83;57.24
71291;DHT22;59073;51.994;4.448;2023-06-26T07:09:35;23.19;57.41
71291;DHT22;59073;51.994;4.448;2023-06-26T07:12:01;22.78;59.38
71291;DHT22;59073;51.994;4.448;2023-06-26T07:14:26;23.16;57.95
71291;DHT22;59073;51.994;4.448;2023-06-26T07:16:51;22.56;60.99
71291;DHT22;59073;51.994;4.448;2023-06-26T07:19:17;22.95;58.84
71291;DHT22;59073;51.994;4.448;2023-06-26T07:21:42;23.41;58.27
71291;DHT22;59073;51.994;4.448;2023-06-26T07:24:10;23.19;56.93
71291;DHT22;59073;51.994;4.448;2023-06-26T07:26:35;22.35;60.89
71291;DHT22;59073;51.994;4.448;2023-06-26T07:29:01;22.40;61.14
71291;DHT22;59073;51.994;4.448;2023-06-26T07:31:26;22.57;61.00
71291;DHT22;59073;51.994;4.448;2023-06-26T07:33:52;23.04;59.87
71291;DHT22;59073;51.994;4.448;2023-06-26T07:36:17;23.39;58.73
71291;DHT22;59073;51.994;4.448;2023-06-26T07:38:43;23.48;57.35
71291;DHT22;59073;51.994;4.448;2023-06-26T07:41:08;22.40;60.35
71291;DHT22;59073;51.994;4.448;2023-06-26T07:43:33;22.46;59.33
71291;DHT22;59073;51.994;4.448;2023-06-26T07:45:59;23.14;59.46
71291;DHT22;59073;51.994;4.448;2023-06-26T07:48:25;22.51;58.82
71291;DHT22;59073;51.994;4.448;2023-06-26T07:50:50;23.22;57.66
71291;DHT22;59073;51.994;4.448;2023-06-26T07:53:16;23.80;57.52
71291;DHT22;59073;51.994;4.448;2023-06-26T07:55:41;24.07;55.78
71291;DHT22;59073;51.994;4.448;2023-06-26T07:58:07;24.21;54.37
71291;DHT22;59073;51.994;4.448;2023-06-26T08:00:32;24.04;56.79
71291;DHT22;59073;51.994;4.448;2023-06-26T08:02:58;24.01;54.53
71291;DHT22;59073;51.994;4.448;2023-06-26T08:05:23;24.14;54.77
71291;DHT22;59073;51.994;4.448;2023-06-26T08:07:49;23.89;55.88
71291;DHT22;59073;51.994;4.448;2023-06-26T08:10:14;23.94;56.81
71291;DHT22;59073;51.994;4.448;2023-06-26T08:12:39;23.94;55.34
71291;DHT22;59073;51.994;4.448;2023-06-26T08:15:08;23.84;55.25
71291;DHT22;59073;51.994;4.448;2023-06-26T08:17:35;22.65;58.57
71291;DHT22;59073;51.994;4.448;2023-06-26T08:20:01;23.14;59.05
71291;DHT22;59073;51.994;4.448;2023-06-26T08:22:27;23.46;58.51
71291;DHT22;59073;51.994;4.448;2023-06-26T08:24:52;23.90;55.58
71291;DHT22;59073;51.994;4.448;2023-06-26T08:27:18;23.45;58.56
71291;DHT22;59073;51.994;4.448;2023-06-26T08:29:43;24.10;58.80
71291;DHT22;59073;51.994;4.448;2023-06-26T08:32:08;24.44;55.24
71291;DHT22;59073;51.994;4.448;2023-06-26T08:34:34;24.79;53.72
71291;DHT22;59073;51.994;4.448;2023-06-26T08:36:59;24.76;55.35
71291;DHT22;59073;51.994;4.448;2023-06-26T08:39:25;25.15;55.01
71291;DHT22;59073;51.994;4.448;2023-06-26T08:41:50;24.78;54.43
71291;DHT22;59073;51.994;4.448;2023-06-26T08:44:16;24.68;52.73
71291;DHT22;59073;51.994;4.448;2023-06-26T08:46:43;24.13;56.85
71291;DHT22;59073;51.994;4.448;2023-06-26T08:49:14;24.54;53.09
71291;DHT22;59073;51.994;4.448;2023-06-26T08:51:50;23.77;54.30
71291;DHT22;59073;51.994;4.448;2023-06-26T08:54:22;23.28;57.33
71291;DHT22;59073;51.994;4.448;2023-06-26T08:56:50;24.18;55.80
71291;DHT22;59073;51.994;4.448;2023-06-26T08:59:16;24.72;54.44
71291;DHT22;59073;51.994;4.448;2023-06-26T09:01:42;25.02;54.30
71291;DHT22;59073;51.994;4.448;2023-06-26T09:04:07;24.95;52.62
71291;DHT22;59073;51.994;4.448;2023-06-26T09:06:33;24.86;52.91
71291;DHT22;59073;51.994;4.448;2023-06-26T09:08:58;24.81;53.36
71291;DHT22;59073;51.994;4.448;2023-06-26T09:11:24;24.98;52.02
71291;DHT22;59073;51.994;4.448;2023-06-26T09:13:50;25.26;52.96
71291;DHT22;59073;51.994;4.448;2023-06-26T09:16:15;24.71;52.79
71291;DHT22;59073;51.994;4.448;2023-06-26T09:18:41;24.55;53.21
71291;DHT22;59073;51.994;4.448;2023-06-26T09:21:11;24.17;56.22
71291;DHT22;59073;51.994;4.448;2023-06-26T09:23:39;24.45;54.32
71291;DHT22;59073;51.994;4.448;2023-06-26T09:26:06;24.68;54.53
71291;DHT22;59073;51.994;4.448;2023-06-26T09:28:35;23.97;56.96
71291;DHT22;59073;51.994;4.448;2023-06-26T09:31:05;24.09;55.74
71291;DHT22;59073;51.994;4.448;2023-06-26T09:33:34;24.07;55.85
71291;DHT22;59073;51.994;4.448;2023-06-26T09:36:07;24.11;54.42
71291;DHT22;59073;51.994;4.448;2023-06-26T09:38:34;24.09;56.46
71291;DHT22;59073;51.994;4.448;2023-06-26T09:41:01;23.55;55.94
71291;DHT22;59073;51.994;4.448;2023-06-26T09:43:26;23.26;57.95
71291;DHT22;59073;51.994;4.448;2023-06-26T09:45:52;23.46;57.18
71291;DHT22;59073;51.994;4.448;2023-06-26T09:48:19;23.73;58.26
71291;DHT22;59073;51.994;4.448;2023-06-26T09:50:46;24.41;54.68
71291;DHT22;59073;51.994;4.448;2023-06-26T09:53:12;24.72;54.29
71291;DHT22;59073;51.994;4.448;2023-06-26T09:55:43;24.71;54.56
71291;DHT22;59073;51.994;4.448;2023-06-26T09:58:12;24.79;53.79
71291;DHT22;59073;51.994;4.448;2023-06-26T10:00:41;24.75;53.87
71291;DHT22;59073;51.994;4.448;2023-06-26T10:03:08;24.79;53.05
71291;DHT22;59073;51.994;4.448;2023-06-26T10:05:33;24.28;52.69
71291;DHT22;59073;51.994;4.448;2023-06-26T10:08:00;24.64;53.60
71291;DHT22;59073;51.994;4.448;2023-06-26T10:10:27;25.01;53.61
71291;DHT22;59073;51.994;4.448;2023-06-26T10:12:59;25.24;51.63
71291;DHT22;59073;51.994;4.448;2023-06-26T10:15:28;24.92;52.06
71291;DHT22;59073;51.994;4.448;2023-06-26T10:17:55;24.24;52.36
71291;DHT22;59073;51.994;4.448;2023-06-26T10:20:23;24.27;52.79
71291;DHT22;59073;51.994;4.448;2023-06-26T10:22:49;24.07;52.12
71291;DHT22;59073;51.994;4.448;2023-06-26T10:25:18;23.07;54.61
71291;DHT22;59073;51.994;4.448;2023-06-26T10:27:59;23.97;54.63
71291;DHT22;59073;51.994;4.448;2023-06-26T10:30:30;24.54;52.75
71291;DHT22;59073;51.994;4.448;2023-06-26T10:32:57;23.66;53.87
71291;DHT22;59073;51.994;4.448;2023-06-26T10:35:24;23.67;56.54
71291;DHT22;59073;51.994;4.448;2023-06-26T10:37:50;24.09;52.38
71291;DHT22;59073;51.994;4.448;2023-06-26T10:40:27;24.07;50.98
71291;DHT22;59073;51.994;4.448;2023-06-26T10:43:07;24.00;51.28
71291;DHT22;59073;51.994;4.448;2023-06-26T10:45:36;23.79;52.63
71291;DHT22;59073;51.994;4.448;2023-06-26T10:48:02;24.64;51.68
71291;DHT22;59073;51.994;4.448;2023-06-26T10:50:31;24.54;51.51
71291;DHT22;59073;51.994;4.448;2023-06-26T10:55:50;22.30;55.60
71291;DHT22;59073;51.994;4.448;2023-06-26T11:01:21;24.25;52.22
71291;DHT22;59073;51.994;4.448;2023-06-26T11:06:21;24.01;50.16
71291;DHT22;59073;51.994;4.448;2023-06-26T11:08:51;23.48;53.17
71291;DHT22;59073;51.994;4.448;2023-06-26T11:11:21;23.73;52.31
71291;DHT22;59073;51.994;4.448;2023-06-26T11:13:48;23.97;51.65
71291;DHT22;59073;51.994;4.448;2023-06-26T11:16:14;24.61;51.50
71291;DHT22;59073;51.994;4.448;2023-06-26T11:18:41;23.04;54.48
71291;DHT22;59073;51.994;4.448;2023-06-26T11:21:07;23.82;53.80
71291;DHT22;59073;51.994;4.448;2023-06-26T11:23:35;24.52;51.88
71291;DHT22;59073;51.994;4.448;2023-06-26T11:26:18;23.87;51.90
71291;DHT22;59073;51.994;4.448;2023-06-26T11:28:55;24.23;52.30
71291;DHT22;59073;51.994;4.448;2023-06-26T11:31:28;24.01;51.84
71291;DHT22;59073;51.994;4.448;2023-06-26T11:33:59;24.21;51.39
71291;DHT22;59073;51.994;4.448;2023-06-26T11:36:26;23.93;50.16
71291;DHT22;59073;51.994;4.448;2023-06-26T11:38:53;23.39;52.05
71291;DHT22;59073;51.994;4.448;2023-06-26T11:41:19;24.10;50.33
71291;DHT22;59073;51.994;4.448;2023-06-26T11:43:44;23.19;49.51
71291;DHT22;59073;51.994;4.448;2023-06-26T11:46:10;23.25;52.20
71291;DHT22;59073;51.994;4.448;2023-06-26T11:48:35;23.52;52.54
71291;DHT22;59073;51.994;4.448;2023-06-26T11:51:04;24.48;50.66
71291;DHT22;59073;51.994;4.448;2023-06-26T11:53:29;24.81;50.39
71291;DHT22;59073;51.994;4.448;2023-06-26T11:55:55;25.24;50.03
71291;DHT22;59073;51.994;4.448;2023-06-26T11:58:22;25.69;47.69
71291;DHT22;59073;51.994;4.448;2023-06-26T12:00:48;25.32;48.25
71291;DHT22;59073;51.994;4.448;2023-06-26T12:03:15;24.99;47.61
71291;DHT22;59073;51.994;4.448;2023-06-26T12:05:41;24.68;48.45
71291;DHT22;59073;51.994;4.448;2023-06-26T12:08:10;24.34;49.84
71291;DHT22;59073;51.994;4.448;2023-06-26T12:10:36;24.37;49.95
71291;DHT22;59073;51.994;4.448;2023-06-26T12:13:02;24.24;50.66
71291;DHT22;59073;51.994;4.448;2023-06-26T12:15:27;24.60;50.66
71291;DHT22;59073;51.994;4.448;2023-06-26T12:17:53;24.16;49.87
71291;DHT22;59073;51.994;4.448;2023-06-26T12:20:23;24.40;51.75
71291;DHT22;59073;51.994;4.448;2023-06-26T12:22:50;23.93;50.46
71291;DHT22;59073;51.994;4.448;2023-06-26T12:25:23;24.37;51.16
71291;DHT22;59073;51.994;4.448;2023-06-26T12:27:49;24.07;50.13
71291;DHT22;59073;51.994;4.448;2023-06-26T12:30:15;23.73;51.23
71291;DHT22;59073;51.994;4.448;2023-06-26T12:32:44;24.09;51.45
71291;DHT22;59073;51.994;4.448;2023-06-26T12:35:10;23.53;50.88
71291;DHT22;59073;51.994;4.448;2023-06-26T12:37:37;23.94;51.76
71291;DHT22;59073;51.994;4.448;2023-06-26T12:40:17;23.97;52.52
71291;DHT22;59073;51.994;4.448;2023-06-26T12:42:45;24.42;51.88
71291;DHT22;59073;51.994;4.448;2023-06-26T12:45:11;24.73;50.97
71291;DHT22;59073;51.994;4.448;2023-06-26T12:47:36;24.58;49.22
71291;DHT22;59073;51.994;4.448;2023-06-26T12:50:05;24.23;49.89
71291;DHT22;59073;51.994;4.448;2023-06-26T12:52:31;24.52;50.01
71291;DHT22;59073;51.994;4.448;2023-06-26T12:54:56;24.28;49.42
71291;DHT22;59073;51.994;4.448;2023-06-26T12:57:22;24.03;51.06
71291;DHT22;59073;51.994;4.448;2023-06-26T12:59:48;24.42;51.37
71291;DHT22;59073;51.994;4.448;2023-06-26T13:02:14;24.37;51.75
71291;DHT22;59073;51.994;4.448;2023-06-26T13:04:40;24.31;52.07
71291;DHT22;59073;51.994;4.448;2023-06-26T13:07:09;24.45;51.13
71291;DHT22;59073;51.994;4.448;2023-06-26T13:09:35;24.67;50.73
71291;DHT22;59073;51.994;4.448;2023-06-26T13:12:02;24.73;50.24
71291;DHT22;59073;51.994;4.448;2023-06-26T13:14:29;24.34;50.70
71291;DHT22;59073;51.994;4.448;2023-06-26T13:16:55;24.21;50.91
71291;DHT22;59073;51.994;4.448;2023-06-26T13:19:20;24.23;51.00
71291;DHT22;59073;51.994;4.448;2023-06-26T13:21:45;23.94;50.04
71291;DHT22;59073;51.994;4.448;2023-06-26T13:24:11;24.30;49.50
71291;DHT22;59073;51.994;4.448;2023-06-26T13:26:37;24.72;49.06
71291;DHT22;59073;51.994;4.448;2023-06-26T13:29:02;24.75;48.41
71291;DHT22;59073;51.994;4.448;2023-06-26T13:31:28;24.41;49.65
71291;DHT22;59073;51.994;4.448;2023-06-26T13:33:56;24.73;46.93
71291;DHT22;59073;51.994;4.448;2023-06-26T13:36:22;24.23;49.00
71291;DHT22;59073;51.994;4.448;2023-06-26T13:38:47;24.31;47.32
71291;DHT22;59073;51.994;4.448;2023-06-26T13:41:15;24.31;49.62
71291;DHT22;59073;51.994;4.448;2023-06-26T13:43:41;23.41;50.97
71291;DHT22;59073;51.994;4.448;2023-06-26T13:46:06;23.33;48.91
71291;DHT22;59073;51.994;4.448;2023-06-26T13:48:32;23.18;52.32
71291;DHT22;59073;51.994;4.448;2023-06-26T13:50:58;23.08;53.25
71291;DHT22;59073;51.994;4.448;2023-06-26T13:53:24;22.91;53.14
71291;DHT22;59073;51.994;4.448;2023-06-26T13:55:49;23.07;52.87
71291;DHT22;59073;51.994;4.448;2023-06-26T13:58:14;23.56;51.72
71291;DHT22;59073;51.994;4.448;2023-06-26T14:00:40;23.73;48.77
71291;DHT22;59073;51.994;4.448;2023-06-26T14:03:07;23.90;49.73
71291;DHT22;59073;51.994;4.448;2023-06-26T14:05:34;24.23;49.16
71291;DHT22;59073;51.994;4.448;2023-06-26T14:08:01;24.16;47.72
71291;DHT22;59073;51.994;4.448;2023-06-26T14:10:27;24.10;47.81
71291;DHT22;59073;51.994;4.448;2023-06-26T14:12:52;23.90;49.26
71291;DHT22;59073;51.994;4.448;2023-06-26T14:15:18;23.93;50.82
71291;DHT22;59073;51.994;4.448;2023-06-26T14:17:43;24.17;50.51
71291;DHT22;59073;51.994;4.448;2023-06-26T14:20:10;23.79;50.05
71291;DHT22;59073;51.994;4.448;2023-06-26T14:22:39;23.10;50.14
71291;DHT22;59073;51.994;4.448;2023-06-26T14:25:08;23.33;51.16
71291;DHT22;59073;51.994;4.448;2023-06-26T14:27:35;22.73;50.52
71291;DHT22;59073;51.994;4.448;2023-06-26T14:30:03;22.47;51.63
71291;DHT22;59073;51.994;4.448;2023-06-26T14:32:29;22.67;51.96
71291;DHT22;59073;51.994;4.448;2023-06-26T14:34:55;22.98;53.07
71291;DHT22;59073;51.994;4.448;2023-06-26T14:37:21;23.42;52.04
71291;DHT22;59073;51.994;4.448;2023-06-26T14:39:46;23.12;51.46
71291;DHT22;59073;51.994;4.448;2023-06-26T14:42:12;22.36;54.07
71291;DHT22;59073;51.994;4.448;2023-06-26T14:44:38;23.01;51.62
71291;DHT22;59073;51.994;4.448;2023-06-26T14:47:03;23.53;50.98
71291;DHT22;59073;51.994;4.448;2023-06-26T14:49:29;23.51;49.92
71291;DHT22;59073;51.994;4.448;2023-06-26T14:51:55;22.30;52.41
71291;DHT22;59073;51.994;4.448;2023-06-26T14:54:21;23.01;53.58
71291;DHT22;59073;51.994;4.448;2023-06-26T14:56:46;23.46;51.25
71291;DHT22;59073;51.994;4.448;2023-06-26T14:59:12;22.70;50.39
71291;DHT22;59073;51.994;4.448;2023-06-26T15:01:38;22.24;54.04
71291;DHT22;59073;51.994;4.448;2023-06-26T15:04:05;22.09;52.75
71291;DHT22;59073;51.994;4.448;2023-06-26T15:06:30;22.12;54.28
71291;DHT22;59073;51.994;4.448;2023-06-26T15:08:56;22.63;54.52
71291;DHT22;59073;51.994;4.448;2023-06-26T15:11:21;21.96;52.58
71291;DHT22;59073;51.994;4.448;2023-06-26T15:13:46;21.74;55.52
71291;DHT22;59073;51.994;4.448;2023-06-26T15:16:12;22.43;54.19
71291;DHT22;59073;51.994;4.448;2023-06-26T15:18:37;22.77;52.70
71291;DHT22;59073;51.994;4.448;2023-06-26T15:21:03;22.43;54.83
71291;DHT22;59073;51.994;4.448;2023-06-26T15:23:29;23.05;53.66
71291;DHT22;59073;51.994;4.448;2023-06-26T15:25:55;23.10;52.75
71291;DHT22;59073;51.994;4.448;2023-06-26T15:28:20;23.29;52.75
71291;DHT22;59073;51.994;4.448;2023-06-26T15:30:46;23.11;53.28
71291;DHT22;59073;51.994;4.448;2023-06-26T15:33:12;23.28;53.74
71291;DHT22;59073;51.994;4.448;2023-06-26T15:35:38;23.59;52.93
71291;DHT22;59073;51.994;4.448;2023-06-26T15:38:04;23.61;51.88
71291;DHT22;59073;51.994;4.448;2023-06-26T15:40:29;23.65;52.43